Time;durP1;ratioP1;P1;durP2;ratioP2;P2;SDS_P1;SDS_P2;PMS_P1;PMS_P2;Temp;Humidity;BMP_temperature;BMP_pressure;BME280_temperature;BME280_humidity;BME280_pressure;Samples;Min_cycle;Max_cycle;Signal;HPM_P1;HPM_P2
2022/12/27 00:01:28;;;;;;;11.82;4.07;;;;;;;4.13;100.00;102098.88;5128884;29;20027;-70
2022/12/27 00:03:59;;;;;;;;;;;;;;;4.63;100.00;102106.47;5129858;29;20035;-71
2022/12/27 00:06:31;;;;;;;9.95;3.42;;;;;;;4.15;100.00;102103.09;5126832;29;20539;-71
2022/12/27 00:09:03;;;;;;;12.95;4.50;;;;;;;4.17;100.00;102115.16;5129608;29;21307;-71
2022/12/27 00:11:35;;;;;;;10.57;4.00;;;;;;;4.15;100.00;102115.22;5128697;29;20392;-71
2022/12/27 00:14:06;;;;;;;9.23;4.13;;;;;;;4.13;100.00;102120.47;5127809;29;20028;-71
2022/12/27 00:16:38;;;;;;;8.70;4.20;;;;;;;4.14;100.00;102116.97;5128576;29;20080;-71
2022/12/27 00:19:09;;;;;;;9.02;3.75;;;;;;;4.15;100.00;102118.66;5128671;29;20050;-72
2022/12/27 00:21:41;;;;;;;11.15;3.80;;;;;;;4.18;100.00;102124.66;5129354;29;20066;-72
2022/12/27 00:24:12;;;;;;;6.28;3.47;;;;;;;4.18;100.00;102117.69;5130474;29;20035;-72
2022/12/27 00:26:43;;;;;;;10.00;4.25;;;;;;;4.13;100.00;102104.91;5129893;28;20114;-73
2022/12/27 00:29:14;;;;;;;10.45;3.40;;;;;;;4.20;100.00;102120.22;5127001;29;20024;-72
2022/12/27 00:31:46;;;;;;;8.80;3.90;;;;;;;4.14;100.00;102116.97;5125746;29;20469;-72
2022/12/27 00:34:17;;;;;;;7.13;3.50;;;;;;;4.21;100.00;102117.59;5111276;29;20028;-72
2022/12/27 00:36:49;;;;;;;8.82;3.53;;;;;;;4.18;100.00;102112.50;5127977;29;20095;-72
2022/12/27 00:39:21;;;;;;;10.70;3.77;;;;;;;4.24;100.00;102121.81;5131204;29;20075;-72
2022/12/27 00:41:52;;;;;;;12.98;4.30;;;;;;;4.17;100.00;102115.16;5108981;29;20303;-72
2022/12/27 00:44:23;;;;;;;9.48;3.55;;;;;;;4.20;100.00;102120.22;5113550;29;20473;-72
2022/12/27 00:46:55;;;;;;;10.43;3.65;;;;;;;4.19;100.00;102115.94;5127268;29;20033;-72
2022/12/27 00:49:26;;;;;;;13.15;4.65;;;;;;;4.22;100.00;102124.47;5128965;29;20019;-72
2022/12/27 00:51:57;;;;;;;11.95;3.83;;;;;;;4.23;100.00;102120.13;5128323;29;20040;-72
2022/12/27 00:54:28;;;;;;;8.38;3.00;;;;;;;4.24;100.00;102127.00;5130314;29;20058;-72
2022/12/27 00:57:00;;;;;;;10.80;3.47;;;;;;;4.30;100.00;102129.38;5127776;29;20039;-72
2022/12/27 00:59:31;;;;;;;7.60;3.20;;;;;;;4.30;100.00;102138.00;5128013;29;20040;-72
2022/12/27 01:02:02;;;;;;;9.40;3.53;;;;;;;4.24;100.00;102140.81;5124306;29;20146;-72
2022/12/27 01:04:34;;;;;;;11.40;3.33;;;;;;;4.30;100.00;102147.53;5125984;29;20046;-72
2022/12/27 01:07:05;;;;;;;7.43;3.53;;;;;;;4.21;100.00;102147.88;5125113;29;20028;-72
2022/12/27 01:09:36;;;;;;;8.35;3.22;;;;;;;4.27;100.00;102150.22;5129277;29;20050;-72
2022/12/27 01:12:07;;;;;;;7.90;3.72;;;;;;;4.33;100.00;102163.81;5126121;29;20111;-72
2022/12/27 01:14:39;;;;;;;10.73;3.80;;;;;;;4.24;100.00;102155.53;5127422;29;20055;-72
2022/12/27 01:17:10;;;;;;;8.27;3.75;;;;;;;4.28;100.00;102162.28;5125778;29;20034;-72
2022/12/27 01:19:41;;;;;;;7.35;3.15;;;;;;;4.27;100.00;102158.84;5109681;29;20524;-72
2022/12/27 01:22:13;;;;;;;14.18;4.30;;;;;;;4.22;100.00;102159.94;5127936;29;21396;-72
2022/12/27 01:24:44;;;;;;;13.18;3.65;;;;;;;4.25;100.00;102168.47;5130260;29;20083;-72
2022/12/27 01:27:15;;;;;;;11.32;3.95;;;;;;;4.22;100.00;102155.59;5130070;29;20044;-72
2022/12/27 01:29:47;;;;;;;10.00;3.35;;;;;;;4.23;100.00;102166.81;5128565;29;20028;-72
2022/12/27 01:32:18;;;;;;;14.13;4.18;;;;;;;4.22;100.00;102173.75;5127822;29;20034;-72
2022/12/27 01:34:50;;;;;;;8.70;3.17;;;;;;;4.25;100.00;102178.00;5127919;29;20162;-72
2022/12/27 01:37:21;;;;;;;8.65;3.40;;;;;;;4.15;100.00;102164.50;5130450;29;20038;-72
2022/12/27 01:39:52;;;;;;;5.00;2.85;;;;;;;4.23;100.00;102166.81;5126941;29;20064;-72
2022/12/27 01:45:18;;;;;;;8.65;3.33;;;;;;;4.27;100.00;102173.56;5129360;29;20409;-72
2022/12/27 01:48:20;;;;;;;13.18;3.88;;;;;;;4.50;100.00;102181.34;5127179;29;20032;-72
2022/12/27 01:51:01;;;;;;;8.48;3.03;;;;;;;4.38;100.00;102172.25;5106857;29;20067;-72
2022/12/27 01:53:36;;;;;;;10.68;3.53;;;;;;;4.33;100.00;102181.13;5116487;29;20077;-72
2022/12/27 01:56:13;;;;;;;7.47;3.45;;;;;;;4.35;100.00;102182.75;5117874;28;20036;-72
2022/12/27 01:58:50;;;;;;;8.98;3.15;;;;;;;4.30;100.00;102189.03;5119948;29;20032;-72
2022/12/27 02:01:26;;;;;;;10.20;3.45;;;;;;;4.33;100.00;102196.72;5125653;29;20024;-72
2022/12/27 02:04:14;;;;;;;9.70;3.22;;;;;;;4.46;100.00;102204.88;5128114;29;20105;-72
2022/12/27 02:06:47;;;;;;;6.45;3.03;;;;;;;4.17;100.00;102188.66;5124929;29;20480;-72
2022/12/27 02:09:23;;;;;;;10.02;3.35;;;;;;;4.34;100.00;102207.00;5127224;29;20028;-72
2022/12/27 02:11:56;;;;;;;11.68;3.40;;;;;;;4.29;100.00;102198.56;5124968;29;20065;-72
2022/12/27 02:14:40;;;;;;;10.43;2.90;;;;;;;4.42;100.00;102214.50;5130365;29;20031;-72
2022/12/27 02:17:19;;;;;;;6.95;3.08;;;;;;;4.38;100.00;102210.34;5131019;29;20039;-72
2022/12/27 02:20:34;;;;;;;10.80;4.40;;;;;;;4.61;100.00;102209.47;5113725;29;20090;-72
2022/12/27 02:26:31;;;;;;;15.85;3.78;;;;;;;4.53;100.00;102206.34;5046616;29;19916;-72
2022/12/27 02:29:30;;;;;;;10.00;2.92;;;;;;;4.48;100.00;102211.72;5124495;23;20059;-73
2022/12/27 02:32:01;;;;;;;10.27;3.13;;;;;;;4.38;100.00;102215.53;5110527;29;20031;-73
2022/12/27 02:35:04;;;;;;;12.47;3.17;;;;;;;4.55;100.00;102215.75;5106969;29;20039;-73
2022/12/27 02:37:43;;;;;;;8.73;3.60;;;;;;;4.44;100.00;102219.66;5122662;29;20430;-73
2022/12/27 02:59:25;;;;;;;11.93;2.92;;;;;;;4.71;100.00;102213.44;5131115;29;20138;-73
2022/12/27 03:05:19;;;;;;;11.10;3.20;;;;;;;4.70;100.00;102214.34;5124858;29;20040;-73
2022/12/27 03:08:02;;;;;;;8.88;3.22;;;;;;;4.61;100.00;102199.94;5130871;29;20031;-72
2022/12/27 03:16:40;;;;;;;7.30;2.83;;;;;;;4.64;100.00;102205.03;5128391;29;20032;-73
2022/12/27 03:33:49;;;;;;;9.90;3.00;;;;;;;4.67;100.00;102242.16;5131119;29;20043;-73
2022/12/27 03:39:30;;;;;;;9.10;2.70;;;;;;;4.73;100.00;102239.31;5130068;29;20032;-73
2022/12/27 03:45:06;;;;;;;7.88;2.47;;;;;;;4.61;100.00;102249.25;5133167;29;20406;-73
2022/12/27 03:47:54;;;;;;;11.40;3.13;;;;;;;4.64;100.00;102249.16;5131704;29;20504;-73
2022/12/27 03:50:33;;;;;;;10.35;3.33;;;;;;;4.63;100.00;102246.63;5127381;29;20024;-73
2022/12/27 03:53:30;;;;;;;11.70;2.78;;;;;;;4.81;100.00;102247.66;5128406;29;20047;-73
2022/12/27 03:56:02;;;;;;;9.48;3.13;;;;;;;4.59;100.00;102261.47;5129810;29;20055;-73
2022/12/27 03:58:33;;;;;;;8.57;2.67;;;;;;;4.61;100.00;102259.63;5128400;29;20027;-73
2022/12/27 04:01:05;;;;;;;9.73;2.40;;;;;;;4.56;100.00;102264.16;5126179;29;20067;-73
2022/12/27 04:03:36;;;;;;;7.05;2.28;;;;;;;4.55;100.00;102266.84;5128790;29;20039;-73
2022/12/27 04:06:07;;;;;;;10.77;3.03;;;;;;;4.58;100.00;102264.97;5128911;29;20035;-73
2022/12/27 04:36:58;;;;;;;12.18;2.63;;;;;;;4.56;100.00;102273.72;5127630;29;20453;-72
2022/12/27 04:39:29;;;;;;;8.13;2.50;;;;;;;4.57;100.00;102270.19;5128132;29;20051;-73
2022/12/27 04:56:11;;;;;;;9.00;2.47;;;;;;;4.47;100.00;102254.13;5124098;29;20036;-73
2022/12/27 05:02:02;;;;;;;8.52;2.50;;;;;;;4.58;100.00;102283.13;5126811;29;20023;-73
2022/12/27 05:02:08;;;;;;;8.30;2.58;;;;;;;4.56;100.00;102284.94;5126669;29;20111;-73
2022/12/27 05:04:35;;;;;;;12.35;2.35;;;;;;;4.61;100.00;102288.19;5119897;29;20123;-73
2022/12/27 05:15:43;;;;;;;8.70;2.70;;;;;;;4.52;100.00;102295.47;5122955;29;20027;-73
2022/12/27 05:18:14;;;;;;;10.50;2.75;;;;;;;4.50;100.00;102292.94;5126873;29;20374;-73
2022/12/27 05:20:46;;;;;;;8.48;3.00;;;;;;;4.49;100.00;102288.66;5126482;29;20039;-73
2022/12/27 05:26:25;;;;;;;10.27;3.17;;;;;;;4.58;100.00;102290.94;5099936;29;20036;-73
2022/12/27 05:28:58;;;;;;;8.98;2.38;;;;;;;4.60;100.00;102304.69;5127560;29;20524;-73
2022/12/27 05:31:29;;;;;;;7.25;2.45;;;;;;;4.63;100.00;102307.16;5126838;29;20063;-73
2022/12/27 05:34:00;;;;;;;7.40;2.60;;;;;;;4.64;100.00;102310.59;5127311;29;20059;-73
2022/12/27 05:36:32;;;;;;;15.40;3.20;;;;;;;4.68;100.00;102322.56;5127805;29;20031;-73
2022/12/27 05:39:03;;;;;;;9.65;2.80;;;;;;;4.66;100.00;102315.72;5129060;29;20032;-73
2022/12/27 05:41:35;;;;;;;8.80;2.53;;;;;;;4.71;100.00;102324.22;5128402;29;20036;-73
2022/12/27 05:44:06;;;;;;;7.35;2.63;;;;;;;4.65;100.00;102325.28;5125580;29;20077;-73
2022/12/27 05:46:37;;;;;;;9.00;2.55;;;;;;;4.61;100.00;102329.72;5115636;29;20034;-73
2022/12/27 05:49:09;;;;;;;7.10;2.63;;;;;;;4.56;100.00;102329.06;5127714;29;20126;-73
2022/12/27 05:51:40;;;;;;;11.35;3.20;;;;;;;4.59;100.00;102331.53;5125533;29;20027;-73
2022/12/27 05:54:11;;;;;;;8.40;2.88;;;;;;;4.63;100.00;102342.66;5125549;29;20032;-73
2022/12/27 05:56:42;;;;;;;13.55;3.13;;;;;;;4.59;100.00;102338.50;5122333;29;20032;-73
2022/12/27 05:59:14;;;;;;;9.73;2.85;;;;;;;4.56;100.00;102344.63;5126355;29;20028;-73
2022/12/27 06:01:45;;;;;;;13.68;3.03;;;;;;;4.48;100.00;102333.69;5123230;29;20051;-73
2022/12/27 06:04:16;;;;;;;9.90;3.42;;;;;;;4.54;100.00;102362.00;5127347;29;20031;-73
2022/12/27 06:06:47;;;;;;;8.98;2.67;;;;;;;4.52;100.00;102357.78;5124995;29;20031;-73
2022/12/27 06:09:19;;;;;;;6.32;2.53;;;;;;;4.51;100.00;102364.72;5121616;29;20032;-73
2022/12/27 06:11:50;;;;;;;10.18;2.70;;;;;;;4.49;100.00;102355.28;5120433;29;20123;-73
2022/12/27 06:14:21;;;;;;;12.75;2.97;;;;;;;4.46;100.00;102353.63;5127564;29;20027;-73
2022/12/27 06:16:53;;;;;;;8.65;2.50;;;;;;;4.44;100.00;102344.22;5126870;29;20094;-73
2022/12/27 06:19:24;;;;;;;13.10;2.80;;;;;;;4.35;100.00;102342.78;5128519;29;20028;-73
2022/12/27 06:21:55;;;;;;;7.53;2.83;;;;;;;4.44;100.00;102355.44;5124422;29;20028;-73
2022/12/27 06:24:26;;;;;;;9.48;3.00;;;;;;;4.40;100.00;102356.47;5123939;29;20043;-73
2022/12/27 06:26:58;;;;;;;8.68;2.38;;;;;;;4.40;100.00;102356.47;5126614;29;20023;-73
2022/12/27 06:29:29;;;;;;;6.30;2.75;;;;;;;4.39;100.00;102354.75;5123609;29;20382;-73
2022/12/27 06:32:00;;;;;;;10.27;3.35;;;;;;;4.41;100.00;102357.31;5127358;29;20028;-73
2022/12/27 06:34:32;;;;;;;9.27;3.05;;;;;;;4.36;100.00;102360.91;5126842;29;20036;-73
2022/12/27 06:37:03;;;;;;;10.32;2.83;;;;;;;4.31;100.00;102361.94;5125396;29;20039;-73
2022/12/27 06:39:34;;;;;;;6.55;2.45;;;;;;;4.29;100.00;102351.63;5123575;29;20021;-73
2022/12/27 06:42:05;;;;;;;7.38;2.58;;;;;;;4.26;100.00;102353.47;5124173;29;20038;-72
2022/12/27 06:44:37;;;;;;;10.63;3.00;;;;;;;4.22;100.00;102355.34;5129008;29;20043;-72
2022/12/27 06:47:08;;;;;;;10.90;3.45;;;;;;;4.09;100.00;102333.28;5128911;29;20107;-72
2022/12/27 06:49:39;;;;;;;7.03;2.67;;;;;;;4.22;100.00;102355.34;5127360;29;20028;-72
2022/12/27 06:52:10;;;;;;;11.77;3.38;;;;;;;4.15;100.00;102359.88;5129871;29;20055;-72
2022/12/27 06:54:42;;;;;;;12.98;3.25;;;;;;;4.14;100.00;102360.78;5130704;29;20032;-72
2022/12/27 06:57:13;;;;;;;10.05;3.25;;;;;;;4.07;100.00;102354.09;5128772;29;20525;-72
2022/12/27 06:59:44;;;;;;;8.68;2.90;;;;;;;4.11;100.00;102366.06;5131006;29;20032;-72
2022/12/27 07:02:15;;;;;;;10.00;3.10;;;;;;;4.04;100.00;102349.00;5133619;29;20084;-72
2022/12/27 07:04:47;;;;;;;12.82;3.35;;;;;;;4.05;100.00;102357.63;5132259;29;20044;-72
2022/12/27 07:07:18;;;;;;;10.55;3.10;;;;;;;3.95;100.00;102345.88;5134139;29;20103;-72
2022/12/27 07:09:49;;;;;;;10.88;3.22;;;;;;;3.98;100.00;102361.31;5136480;29;20270;-72
2022/12/27 07:12:21;;;;;;;8.15;3.15;;;;;;;3.94;100.00;102367.50;5132413;29;20031;-72
2022/12/27 07:14:52;;;;;;;10.63;3.88;;;;;;;3.91;100.00;102363.28;5135482;29;20047;-72
2022/12/27 07:17:23;;;;;;;9.70;3.20;;;;;;;3.94;100.00;102368.38;5128115;29;20031;-72
2022/12/27 07:19:54;;;;;;;8.32;3.58;;;;;;;3.94;100.00;102372.69;5126842;29;20027;-72
2022/12/27 07:22:26;;;;;;;7.68;2.97;;;;;;;3.93;100.00;102369.25;5124586;29;20043;-70
2022/12/27 07:24:58;;;;;;;10.25;3.40;;;;;;;3.95;100.00;102361.44;5130107;29;20027;-72
2022/12/27 07:27:32;;;;;;;6.95;3.45;;;;;;;3.99;100.00;102381.19;5127885;29;20027;-74
2022/12/27 07:30:04;;;;;;;10.93;3.65;;;;;;;3.92;100.00;102383.13;5130339;29;20062;-72
2022/12/27 07:32:35;;;;;;;9.80;3.28;;;;;;;3.90;100.00;102382.31;5131491;29;20036;-72
2022/12/27 07:35:06;;;;;;;7.18;3.08;;;;;;;3.92;100.00;102390.06;5132646;29;20043;-72
2022/12/27 07:37:38;;;;;;;11.10;3.42;;;;;;;3.95;100.00;102385.63;5126132;29;20035;-73
2022/12/27 07:40:09;;;;;;;8.23;3.47;;;;;;;3.95;100.00;102388.22;5113136;29;20020;-72
2022/12/27 07:42:40;;;;;;;11.40;4.03;;;;;;;3.95;100.00;102387.38;5131528;29;20043;-72
2022/12/27 07:45:12;;;;;;;12.63;4.00;;;;;;;3.81;100.00;102361.88;5131258;29;20039;-72
2022/12/27 07:47:43;;;;;;;8.93;3.75;;;;;;;3.97;100.00;102382.97;5133722;29;20043;-73
2022/12/27 07:50:14;;;;;;;9.38;4.05;;;;;;;3.99;100.00;102392.41;5129967;29;20074;-72
2022/12/27 07:52:46;;;;;;;13.05;4.22;;;;;;;3.97;100.00;102388.16;5133236;29;20036;-72
2022/12/27 07:55:17;;;;;;;8.30;3.67;;;;;;;3.97;100.00;102385.56;5129270;29;20032;-72
2022/12/27 07:57:48;;;;;;;9.45;4.00;;;;;;;3.98;100.00;102385.53;5131963;29;20040;-72
2022/12/27 08:00:19;;;;;;;6.68;3.72;;;;;;;4.02;100.00;102392.31;5118742;29;20039;-72
2022/12/27 08:02:51;;;;;;;12.10;4.57;;;;;;;4.03;100.00;102394.00;5128893;29;20043;-72
2022/12/27 08:05:22;;;;;;;10.23;3.85;;;;;;;4.06;100.00;102390.47;5133241;29;20027;-72
2022/12/27 08:07:53;;;;;;;12.00;4.32;;;;;;;4.07;100.00;102394.75;5130561;29;20114;-72
2022/12/27 08:10:25;;;;;;;9.50;4.20;;;;;;;4.07;100.00;102395.59;5131945;29;20156;-72
2022/12/27 08:12:56;;;;;;;9.73;4.07;;;;;;;4.09;100.00;102399.00;5131930;29;20034;-72
2022/12/27 08:15:27;;;;;;;10.80;4.35;;;;;;;4.00;100.00;102385.47;5114754;29;20028;-72
2022/12/27 08:17:58;;;;;;;8.50;3.72;;;;;;;4.16;100.00;102412.59;5128224;29;20035;-72
2022/12/27 08:20:30;;;;;;;10.98;4.43;;;;;;;4.19;100.00;102417.69;5128386;29;20107;-72
2022/12/27 08:23:01;;;;;;;8.25;4.35;;;;;;;4.20;100.00;102415.94;5131949;29;20039;-72
2022/12/27 08:25:32;;;;;;;12.25;5.00;;;;;;;4.12;100.00;102400.63;5129911;29;20050;-72
2022/12/27 08:28:05;;;;;;;11.15;4.72;;;;;;;4.22;100.00;102425.38;5132812;29;20043;-72
2022/12/27 08:30:38;;;;;;;6.78;4.10;;;;;;;4.25;100.00;102427.03;5131844;29;20074;-72
2022/12/27 08:33:10;;;;;;;12.48;4.93;;;;;;;4.30;100.00;102430.31;5125519;29;20478;-72
2022/12/27 08:35:43;;;;;;;10.05;4.22;;;;;;;4.30;100.00;102435.50;5128509;29;20046;-72
2022/12/27 08:38:14;;;;;;;14.30;4.32;;;;;;;4.30;100.00;102423.38;5133956;29;20023;-72
2022/12/27 08:40:45;;;;;;;10.25;4.25;;;;;;;4.30;100.00;102427.72;5129946;29;20040;-72
2022/12/27 08:43:17;;;;;;;9.50;4.53;;;;;;;4.29;100.00;102413.06;5115187;29;20028;-72
2022/12/27 08:45:48;;;;;;;9.15;4.60;;;;;;;4.32;100.00;102407.78;5131422;29;20087;-72
2022/12/27 08:48:20;;;;;;;11.88;4.50;;;;;;;4.28;100.00;102395.75;5133087;29;20036;-72
2022/12/27 08:50:51;;;;;;;9.45;4.28;;;;;;;4.34;100.00;102400.75;5128333;29;20038;-72
2022/12/27 08:53:22;;;;;;;14.25;5.00;;;;;;;4.37;100.00;102398.91;5133865;29;20050;-72
2022/12/27 08:55:55;;;;;;;10.73;4.00;;;;;;;4.36;100.00;102396.38;5128995;29;20023;-72
2022/12/27 08:58:27;;;;;;;12.05;4.78;;;;;;;4.43;100.00;102410.81;5132281;29;20142;-72
2022/12/27 09:01:06;;;;;;;8.82;4.30;;;;;;;4.52;100.00;102409.69;5127328;29;20612;-72
2022/12/27 09:03:37;;;;;;;8.95;4.22;;;;;;;4.48;100.00;102408.09;5130127;29;20059;-72
2022/12/27 09:06:17;;;;;;;12.93;4.93;;;;;;;4.64;100.00;102412.69;5129861;29;20038;-72
2022/12/27 09:08:49;;;;;;;10.07;4.30;;;;;;;4.49;100.00;102413.22;5128517;29;20023;-72
2022/12/27 09:11:23;;;;;;;10.07;3.80;;;;;;;4.56;100.00;102412.09;5129640;29;20094;-72
2022/12/27 09:13:56;;;;;;;8.27;4.25;;;;;;;4.52;100.00;102404.50;5125765;29;20114;-72
2022/12/27 09:16:29;;;;;;;7.90;4.53;;;;;;;4.57;100.00;102416.38;5130940;29;20173;-72
2022/12/27 09:19:01;;;;;;;8.55;3.38;;;;;;;4.58;100.00;102418.09;5129384;29;20035;-72
2022/12/27 09:21:33;;;;;;;15.05;4.45;;;;;;;4.61;100.00;102415.38;5127294;29;20520;-72
2022/12/27 09:24:04;;;;;;;6.93;3.38;;;;;;;4.67;100.00;102408.31;5123692;29;20119;-72
2022/12/27 09:26:36;;;;;;;10.05;3.83;;;;;;;4.72;100.00;102415.00;5131171;29;20032;-72
2022/12/27 09:29:07;;;;;;;9.32;3.83;;;;;;;4.78;100.00;102417.41;5128411;29;20586;-72
2022/12/27 09:31:39;;;;;;;7.20;3.70;;;;;;;4.80;100.00;102420.78;5125529;29;20055;-72
2022/12/27 09:34:10;;;;;;;9.38;4.35;;;;;;;4.86;100.00;102417.13;5127650;29;20023;-72
2022/12/27 09:36:42;;;;;;;9.27;3.17;;;;;;;4.89;100.00;102422.22;5129742;29;20091;-73
2022/12/27 09:39:15;;;;;;;13.73;4.45;;;;;;;4.95;100.00;102431.53;5128863;29;20020;-71
2022/12/27 09:42:41;;;;;;;10.45;3.92;;;;;;;5.28;100.00;102421.66;5130994;29;20035;-70
2022/12/27 09:45:18;;;;;;;7.25;3.08;;;;;;;5.13;100.00;102429.13;5068441;29;20032;-71
2022/12/27 09:48:29;;;;;;;11.23;4.50;;;;;;;5.36;100.00;102424.81;5126580;29;20058;-71
2022/12/27 09:51:09;;;;;;;9.15;3.78;;;;;;;5.20;100.00;102434.09;5107001;29;20150;-71
2022/12/27 09:53:51;;;;;;;7.97;4.13;;;;;;;5.29;100.00;102432.00;5127114;29;20485;-71
2022/12/27 09:56:31;;;;;;;14.27;4.78;;;;;;;5.39;100.00;102429.91;5130899;29;20054;-71
2022/12/27 09:59:22;;;;;;;13.05;5.15;;;;;;;5.51;100.00;102426.00;5130128;29;20047;-70
2022/12/27 10:01:54;;;;;;;11.90;4.45;;;;;;;5.39;100.00;102409.13;5129629;29;20118;-71
2022/12/27 10:04:27;;;;;;;10.05;4.15;;;;;;;5.48;100.00;102424.34;5125399;29;20453;-71
2022/12/27 10:07:13;;;;;;;9.15;4.00;;;;;;;5.61;100.00;102424.75;5126978;29;20106;-71
2022/12/27 10:09:55;;;;;;;14.15;4.15;;;;;;;5.76;100.00;102436.31;5128458;29;20016;-70
2022/12/27 10:12:47;;;;;;;11.00;3.90;;;;;;;5.85;100.00;102430.72;5127220;29;20091;-71
2022/12/27 10:15:30;;;;;;;8.15;3.90;;;;;;;5.96;100.00;102425.97;5127903;29;20440;-71
2022/12/27 10:18:07;;;;;;;10.75;3.50;;;;;;;5.93;100.00;102441.72;5109967;29;20039;-71
2022/12/27 10:21:07;;;;;;;11.80;4.03;;;;;;;6.15;100.00;102422.63;5123745;29;20115;-71
2022/12/27 10:23:43;;;;;;;12.38;4.50;;;;;;;6.12;100.00;102427.97;5128887;29;20548;-71
2022/12/27 10:26:16;;;;;;;9.23;3.50;;;;;;;6.13;100.00;102424.44;5129228;29;20028;-71
2022/12/27 10:28:59;;;;;;;11.68;4.25;;;;;;;6.26;100.00;102423.03;5129244;28;20048;-71
2022/12/27 10:31:31;;;;;;;10.00;3.67;;;;;;;6.26;100.00;102425.66;5126600;29;20040;-71
2022/12/27 10:34:02;;;;;;;6.70;3.03;;;;;;;6.30;100.00;102417.66;5128163;29;20050;-71
2022/12/27 10:36:33;;;;;;;8.18;3.60;;;;;;;6.38;100.00;102425.13;5132302;29;20520;-71
2022/12/27 10:39:17;;;;;;;8.15;3.65;;;;;;;6.60;100.00;102425.09;5134087;29;20022;-71
2022/12/27 10:42:07;;;;;;;;;;;;;;;6.95;100.00;102425.28;5129310;28;20043;-71
2022/12/27 10:44:38;;;;;;;9.52;3.33;;;;;;;6.66;100.00;102418.75;5136915;29;19914;-72
2022/12/27 10:47:09;;;;;;;14.30;3.75;;;;;;;6.68;100.00;102422.16;5135396;29;20082;-71
2022/12/27 10:49:59;;;;;;;13.02;3.58;;;;;;;6.71;100.00;102415.03;5134743;29;20062;-71
2022/12/27 10:52:34;;;;;;;7.00;3.40;;;;;;;6.76;100.00;102422.66;5133057;29;20348;-71
2022/12/27 10:55:36;;;;;;;10.55;3.45;;;;;;;7.03;100.00;102431.84;5133584;29;20046;-72
2022/12/27 10:58:34;;;;;;;9.57;4.03;;;;;;;7.15;100.00;102432.22;5118862;29;20036;-71
2022/12/27 11:01:13;;;;;;;9.27;3.70;;;;;;;6.83;100.00;102447.53;5130013;29;20035;-71
2022/12/27 11:03:44;;;;;;;7.35;3.10;;;;;;;6.83;100.00;102439.72;5125483;29;20082;-71
2022/12/27 11:06:20;;;;;;;9.05;3.53;;;;;;;6.90;100.00;102435.09;5134838;29;20437;-71
2022/12/27 11:08:52;;;;;;;7.82;3.10;;;;;;;6.93;100.00;102428.00;5128059;29;20031;-71
2022/12/27 11:11:25;;;;;;;8.38;3.50;;;;;;;6.92;100.00;102421.06;5129479;29;20857;-71
2022/12/27 11:14:09;;;;;;;10.73;3.55;;;;;;;7.13;100.00;102419.28;5127943;29;20032;-71
2022/12/27 11:16:42;;;;;;;8.30;3.47;;;;;;;7.01;100.00;102414.63;5130807;29;20028;-72
2022/12/27 11:19:26;;;;;;;12.60;4.10;;;;;;;7.19;100.00;102413.75;5132410;29;20066;-71
2022/12/27 11:22:03;;;;;;;12.38;3.83;;;;;;;7.11;100.00;102418.47;5135247;29;20517;-71
2022/12/27 11:24:35;;;;;;;8.40;3.08;;;;;;;7.14;100.00;102407.91;5131339;29;20520;-72
2022/12/27 11:27:24;;;;;;;9.25;3.70;;;;;;;7.26;100.00;102409.97;5128551;29;20031;-71
2022/12/27 11:29:57;;;;;;;8.25;2.97;;;;;;;7.23;100.00;102404.03;5095717;29;20092;-71
2022/12/27 11:32:29;;;;;;;7.57;2.58;;;;;;;7.30;100.00;102416.72;5113851;29;20493;-71
2022/12/27 11:35:00;;;;;;;10.65;3.20;;;;;;;7.27;100.00;102416.88;5111967;29;20038;-72
2022/12/27 11:37:31;;;;;;;8.82;3.00;;;;;;;7.29;100.00;102415.03;5112709;29;20043;-72
2022/12/27 11:40:29;;;;;;;9.13;3.40;;;;;;;7.40;100.00;102406.72;5113855;29;20446;-72
2022/12/27 11:43:09;;;;;;;8.90;3.38;;;;;;;7.37;100.00;102412.09;5110053;29;20146;-72
2022/12/27 11:45:49;;;;;;;7.82;3.05;;;;;;;7.44;100.00;102405.66;5101491;29;20036;-72
2022/12/27 11:48:34;;;;;;;7.72;3.15;;;;;;;7.49;100.00;102406.28;5108609;29;20043;-72
2022/12/27 11:51:36;;;;;;;7.63;2.80;;;;;;;7.61;100.00;102404.88;5110028;29;20035;-72
2022/12/27 11:54:22;;;;;;;9.23;3.15;;;;;;;7.50;100.00;102402.78;5107274;29;20063;-72
2022/12/27 11:57:26;;;;;;;8.00;3.03;;;;;;;7.47;100.00;102395.09;5111057;29;20036;-72
2022/12/27 12:00:22;;;;;;;6.97;2.97;;;;;;;7.57;100.00;102398.94;5107248;29;20149;-72
2022/12/27 12:03:32;;;;;;;8.55;2.75;;;;;;;7.42;100.00;102398.81;5102452;29;20043;-72
2022/12/27 12:06:34;;;;;;;7.40;3.30;;;;;;;7.51;100.00;102396.66;5077286;29;20048;-72
2022/12/27 12:09:45;;;;;;;9.23;3.33;;;;;;;7.64;100.00;102385.63;5106424;29;20024;-72
2022/12/27 12:12:41;;;;;;;7.72;3.17;;;;;;;7.48;100.00;102375.91;5106713;29;20039;-72
2022/12/27 12:15:55;;;;;;;7.90;3.33;;;;;;;7.46;100.00;102382.13;5106646;29;20028;-72
2022/12/27 12:18:48;;;;;;;7.43;2.70;;;;;;;7.46;100.00;102369.94;5107979;29;20070;-72
2022/12/27 12:21:50;;;;;;;9.30;3.23;;;;;;;7.43;100.00;102361.44;5104778;29;20044;-72
2022/12/27 12:24:42;;;;;;;8.45;2.90;;;;;;;7.31;100.00;102365.44;5110725;29;20036;-72
2022/12/27 12:27:21;;;;;;;7.65;3.13;;;;;;;7.37;100.00;102365.16;5110528;29;20649;-72
2022/12/27 12:30:23;;;;;;;6.38;2.83;;;;;;;7.45;100.00;102378.66;5116805;29;20042;-72
2022/12/27 12:33:23;;;;;;;6.60;3.10;;;;;;;7.56;100.00;102380.78;5113392;29;20141;-72
2022/12/27 12:36:06;;;;;;;9.75;3.13;;;;;;;7.49;100.00;102364.56;5129697;29;20467;-72
2022/12/27 12:38:37;;;;;;;;;;;;;;;7.87;100.00;102366.25;5127727;29;20039;-72
2022/12/27 12:41:48;;;;;;;8.30;2.72;;;;;;;7.57;100.00;102357.22;5131960;29;20384;-72
2022/12/27 12:44:43;;;;;;;8.98;2.65;;;;;;;7.61;100.00;102346.63;5123965;29;20059;-72
2022/12/27 12:47:23;;;;;;;8.18;3.38;;;;;;;7.46;100.00;102358.66;5130462;29;20034;-71
2022/12/27 12:50:10;;;;;;;7.82;3.05;;;;;;;7.38;100.00;102351.19;5122799;29;20039;-72
2022/12/27 12:53:16;;;;;;;7.60;3.40;;;;;;;7.54;100.00;102340.91;5131195;29;20035;-72
2022/12/27 12:55:57;;;;;;;10.63;2.97;;;;;;;7.39;100.00;102328.59;5131270;29;20043;-72
2022/12/27 12:58:40;;;;;;;8.70;3.15;;;;;;;7.46;100.00;102316.94;5129914;29;20042;-72
2022/12/27 13:01:23;;;;;;;5.10;2.90;;;;;;;7.56;100.00;102313.81;5126564;29;20058;-72
2022/12/27 13:04:05;;;;;;;6.97;2.60;;;;;;;7.51;100.00;102312.34;5124582;29;20027;-72
2022/12/27 13:07:00;;;;;;;6.90;2.90;;;;;;;7.59;100.00;102311.97;5119068;29;20410;-72
2022/12/27 13:09:51;;;;;;;7.28;2.80;;;;;;;7.35;100.00;102304.44;5125976;29;20040;-72
2022/12/27 13:12:30;;;;;;;6.93;2.95;;;;;;;7.35;100.00;102301.81;5127134;29;20102;-72
2022/12/27 13:15:32;;;;;;;8.45;2.40;;;;;;;7.55;100.00;102290.41;5131845;29;20024;-71
2022/12/27 13:18:03;;;;;;;7.13;3.00;;;;;;;7.30;100.00;102295.97;5130735;29;20089;-72
2022/12/27 13:20:53;;;;;;;6.93;2.90;;;;;;;7.42;100.00;102290.16;5127863;29;20114;-72
2022/12/27 13:23:52;;;;;;;7.30;2.33;;;;;;;7.48;100.00;102286.41;5132252;29;20693;-72
2022/12/27 13:26:33;;;;;;;7.40;2.75;;;;;;;7.33;100.00;102285.41;5133374;29;20031;-72
2022/12/27 13:29:32;;;;;;;7.32;2.70;;;;;;;7.40;100.00;102299.84;5129191;29;20838;-72
2022/12/27 13:32:27;;;;;;;8.90;2.90;;;;;;;7.48;100.00;102292.47;5132584;29;20036;-72
2022/12/27 13:35:17;;;;;;;6.95;2.40;;;;;;;7.40;100.00;102288.56;5127751;29;20035;-72
2022/12/27 13:38:18;;;;;;;10.15;3.90;;;;;;;7.31;100.00;102277.66;5125035;29;20465;-72
2022/12/27 13:41:13;;;;;;;8.48;2.70;;;;;;;7.42;100.00;102258.88;5124561;29;20368;-72
2022/12/27 13:44:33;;;;;;;7.97;3.05;;;;;;;7.56;100.00;102256.44;5128523;29;20039;-72
2022/12/27 13:47:35;;;;;;;7.40;2.40;;;;;;;7.65;100.00;102249.94;5070172;29;20051;-72
2022/12/27 13:50:33;;;;;;;9.13;2.70;;;;;;;7.57;100.00;102241.63;5130419;29;20346;-71
2022/12/27 13:53:32;;;;;;;9.05;2.47;;;;;;;7.73;100.00;102246.94;5127650;29;20044;-72
2022/12/27 13:56:17;;;;;;;7.78;2.75;;;;;;;7.67;100.00;102237.63;5127707;29;20023;-72
2022/12/27 13:59:26;;;;;;;10.00;2.40;;;;;;;7.80;100.00;102232.63;5127768;29;20123;-72
2022/12/27 14:02:42;;;;;;;8.35;2.80;;;;;;;7.84;100.00;102222.88;5131372;29;20039;-72